Главная страница
METAR-TAF:

METAR-TAF

Аэропорты :

Париж — Шарль-де-Голль, Франция

широта: 49-01N, долгота: 002-32E, высота над уровнем моря: 118 м

Текущие метеонаблюдения

Эта сводка был подготовлена 29 минут назад, в 11:30 UTC
Ветер 11 Узел от северный
Температура 19°C
Влажность 56%
Давление 1023 hPa
Видимость 10 км и более
Отдельные облака на высоте 3800 фута
Рассеянная облачность на высоте 26000 фута

METAR: LFPG 211130Z 01011KT 9999 SCT038 BKN260 19/10 Q1023 NOSIG

Время: 13:59 (11:59 UTC)

Прогноз

Эта сводка был подготовлена 59 минут назад, в 11:00 UTC
Прогноз действительный с 21-го 12 UTC до 22-го 18 UTC
Ветер 12 Узел от северный
Видимость 10 км и более
Нет облачности ниже 1500 м, и нет кучево-дождевой облачности

TAF: LFPG 211100Z 2112/2218 36012KT CAVOK TX21/2115Z TN08/2203Z

Метеонаблюдения и прогнозы для более 4000 аэропортов (сводки METAR и TAF).

Имеющиеся станции представлены на карте желтыми и красными точками.

Чтобы увидеть название станции, наведите на нее мышь.

Затем щелкните, чтобы увидеть метеонаблюдения и метеопрогнозы.

Управление картой: чтобы увеличить масштаб, щелкните зеленые кнопки с черным крестиком; чтобы уменьшить масштаб, щелкните зеленую кнопку с тире; для просмотра соседних карт щелкайте зеленые стрелки.


METAR-TAF: